sensor_id;sensor_type;location;lat;lon;timestamp;pressure;altitude;pressure_sealevel;temperature;humidity
61109;BME280;46995;55.740;37.402;2022-12-18T00:01:53;99008.16;;;-3.30;87.44
61109;BME280;46995;55.740;37.402;2022-12-18T00:04:23;99014.88;;;-3.26;88.24
61109;BME280;46995;55.740;37.402;2022-12-18T00:06:50;99001.06;;;-3.25;89.19
61109;BME280;46995;55.740;37.402;2022-12-18T00:09:17;98997.56;;;-3.24;88.56
61109;BME280;46995;55.740;37.402;2022-12-18T00:11:42;98974.69;;;-3.33;88.31
61109;BME280;46995;55.740;37.402;2022-12-18T00:14:09;98984.00;;;-3.29;89.35
61109;BME280;46995;55.740;37.402;2022-12-18T00:16:36;98976.50;;;-3.35;89.24
61109;BME280;46995;55.740;37.402;2022-12-18T00:19:03;98986.69;;;-3.32;89.08
61109;BME280;46995;55.740;37.402;2022-12-18T00:21:31;98983.28;;;-3.33;89.34
61109;BME280;46995;55.740;37.402;2022-12-18T00:23:57;98957.16;;;-3.47;89.31
61109;BME280;46995;55.740;37.402;2022-12-18T00:26:26;98968.88;;;-3.38;89.24
61109;BME280;46995;55.740;37.402;2022-12-18T00:29:01;98980.94;;;-3.39;89.30
61109;BME280;46995;55.740;37.402;2022-12-18T00:31:29;98962.28;;;-3.46;90.24
61109;BME280;46995;55.740;37.402;2022-12-18T00:33:56;98948.69;;;-3.51;89.80
61109;BME280;46995;55.740;37.402;2022-12-18T00:36:29;98965.53;;;-3.40;90.12
61109;BME280;46995;55.740;37.402;2022-12-18T00:38:56;98956.38;;;-3.49;89.86
61109;BME280;46995;55.740;37.402;2022-12-18T00:41:23;98957.13;;;-3.46;90.03
61109;BME280;46995;55.740;37.402;2022-12-18T00:44:09;98943.66;;;-3.54;90.54
61109;BME280;46995;55.740;37.402;2022-12-18T00:46:36;98962.28;;;-3.46;90.47
61109;BME280;46995;55.740;37.402;2022-12-18T00:49:02;98928.41;;;-3.60;89.78
61109;BME280;46995;55.740;37.402;2022-12-18T00:51:27;98929.25;;;-3.59;90.72
61109;BME280;46995;55.740;37.402;2022-12-18T00:53:55;98932.97;;;-3.45;89.95
61109;BME280;46995;55.740;37.402;2022-12-18T00:56:23;98905.84;;;-3.55;90.02
61109;BME280;46995;55.740;37.402;2022-12-18T00:58:49;98903.34;;;-3.56;89.64
61109;BME280;46995;55.740;37.402;2022-12-18T01:01:15;98927.94;;;-3.48;90.27
61109;BME280;46995;55.740;37.402;2022-12-18T01:03:42;98922.88;;;-3.51;89.86
61109;BME280;46995;55.740;37.402;2022-12-18T01:06:11;98923.16;;;-3.57;90.03
61109;BME280;46995;55.740;37.402;2022-12-18T01:08:38;98909.69;;;-3.65;90.44
61109;BME280;46995;55.740;37.402;2022-12-18T01:11:12;98895.06;;;-3.64;91.13
61109;BME280;46995;55.740;37.402;2022-12-18T01:13:41;98907.53;;;-3.54;90.89
61109;BME280;46995;55.740;37.402;2022-12-18T01:16:07;98877.13;;;-3.67;91.37
61109;BME280;46995;55.740;37.402;2022-12-18T01:18:35;98878.88;;;-3.68;90.80
61109;BME280;46995;55.740;37.402;2022-12-18T01:21:00;98887.25;;;-3.63;91.02
61109;BME280;46995;55.740;37.402;2022-12-18T01:23:26;98900.91;;;-3.61;90.85
61109;BME280;46995;55.740;37.402;2022-12-18T01:25:52;98889.28;;;-3.71;91.44
61109;BME280;46995;55.740;37.402;2022-12-18T01:28:19;98892.41;;;-3.63;91.09
61109;BME280;46995;55.740;37.402;2022-12-18T01:30:45;98908.50;;;-3.56;90.93
61109;BME280;46995;55.740;37.402;2022-12-18T01:33:12;98912.81;;;-3.57;90.75
61109;BME280;46995;55.740;37.402;2022-12-18T01:35:42;98906.69;;;-3.54;91.24
61109;BME280;46995;55.740;37.402;2022-12-18T01:38:08;98905.84;;;-3.55;91.66
61109;BME280;46995;55.740;37.402;2022-12-18T01:40:33;98892.28;;;-3.60;90.50
61109;BME280;46995;55.740;37.402;2022-12-18T01:43:01;98889.84;;;-3.63;91.05
61109;BME280;46995;55.740;37.402;2022-12-18T01:45:29;98911.75;;;-3.51;91.23
61109;BME280;46995;55.740;37.402;2022-12-18T01:48:05;98899.59;;;-3.49;91.25
61109;BME280;46995;55.740;37.402;2022-12-18T01:50:41;98902.13;;;-3.48;91.24
61109;BME280;46995;55.740;37.402;2022-12-18T01:53:15;98894.75;;;-3.57;91.62
61109;BME280;46995;55.740;37.402;2022-12-18T01:55:46;98907.28;;;-3.48;90.66
61109;BME280;46995;55.740;37.402;2022-12-18T01:58:13;98883.22;;;-3.70;90.81
61109;BME280;46995;55.740;37.402;2022-12-18T02:00:42;98899.00;;;-3.56;90.76
61109;BME280;46995;55.740;37.402;2022-12-18T02:03:08;98878.97;;;-3.71;91.13
61109;BME280;46995;55.740;37.402;2022-12-18T02:08:29;98893.38;;;-3.65;90.99
61109;BME280;46995;55.740;37.402;2022-12-18T02:13:50;98906.75;;;-3.56;90.54
61109;BME280;46995;55.740;37.402;2022-12-18T02:16:40;98905.84;;;-3.55;90.76
61109;BME280;46995;55.740;37.402;2022-12-18T02:22:00;98925.16;;;-3.65;90.95
61109;BME280;46995;55.740;37.402;2022-12-18T02:27:32;98913.28;;;-3.69;90.35
61109;BME280;46995;55.740;37.402;2022-12-18T02:30:01;98905.50;;;-3.67;90.71
61109;BME280;46995;55.740;37.402;2022-12-18T02:32:34;98882.81;;;-3.81;90.10
61109;BME280;46995;55.740;37.402;2022-12-18T02:35:04;98898.41;;;-3.84;90.10
61109;BME280;46995;55.740;37.402;2022-12-18T02:37:33;98905.25;;;-3.83;89.56
61109;BME280;46995;55.740;37.402;2022-12-18T02:40:03;98908.81;;;-3.87;90.52
61109;BME280;46995;55.740;37.402;2022-12-18T02:42:30;98915.75;;;-3.88;90.48
61109;BME280;46995;55.740;37.402;2022-12-18T02:44:58;98916.81;;;-3.93;90.38
61109;BME280;46995;55.740;37.402;2022-12-18T02:47:29;98912.19;;;-3.85;90.66
61109;BME280;46995;55.740;37.402;2022-12-18T02:56:07;98883.28;;;-3.93;90.75
61109;BME280;46995;55.740;37.402;2022-12-18T03:06:38;98905.38;;;-4.09;90.61
61109;BME280;46995;55.740;37.402;2022-12-18T03:09:13;98889.56;;;-4.23;90.28
61109;BME280;46995;55.740;37.402;2022-12-18T03:11:48;98902.47;;;-4.23;90.16
61109;BME280;46995;55.740;37.402;2022-12-18T03:14:37;98898.31;;;-4.28;90.37
61109;BME280;46995;55.740;37.402;2022-12-18T03:17:10;98898.44;;;-4.31;89.73
61109;BME280;46995;55.740;37.402;2022-12-18T03:19:38;98900.13;;;-4.30;90.56
61109;BME280;46995;55.740;37.402;2022-12-18T03:22:07;98905.03;;;-4.23;90.93
61109;BME280;46995;55.740;37.402;2022-12-18T03:24:42;98900.72;;;-4.23;91.14
61109;BME280;46995;55.740;37.402;2022-12-18T03:27:13;98909.88;;;-4.14;90.66
61109;BME280;46995;55.740;37.402;2022-12-18T03:29:49;98904.22;;;-4.24;90.52
61109;BME280;46995;55.740;37.402;2022-12-18T03:32:29;98900.91;;;-4.28;90.81
61109;BME280;46995;55.740;37.402;2022-12-18T03:35:01;98908.47;;;-4.23;90.45
61109;BME280;46995;55.740;37.402;2022-12-18T03:37:32;98915.25;;;-4.20;90.76
61109;BME280;46995;55.740;37.402;2022-12-18T03:39:58;98897.47;;;-4.28;90.79
61109;BME280;46995;55.740;37.402;2022-12-18T03:42:32;98914.28;;;-4.18;91.23
61109;BME280;46995;55.740;37.402;2022-12-18T03:45:13;98909.97;;;-4.17;90.93
61109;BME280;46995;55.740;37.402;2022-12-18T03:48:05;98899.00;;;-4.22;91.34
61109;BME280;46995;55.740;37.402;2022-12-18T03:55:51;98897.94;;;-4.40;91.44
61109;BME280;46995;55.740;37.402;2022-12-18T03:58:23;98904.16;;;-4.46;91.30
61109;BME280;46995;55.740;37.402;2022-12-18T04:01:14;98919.31;;;-4.38;90.99
61109;BME280;46995;55.740;37.402;2022-12-18T04:03:42;98914.47;;;-4.46;91.13
61109;BME280;46995;55.740;37.402;2022-12-18T04:06:10;98902.00;;;-4.58;91.04
61109;BME280;46995;55.740;37.402;2022-12-18T04:08:39;98914.50;;;-4.47;91.43
61109;BME280;46995;55.740;37.402;2022-12-18T04:11:09;98919.63;;;-4.46;91.63
61109;BME280;46995;55.740;37.402;2022-12-18T04:13:36;98940.75;;;-4.36;91.43
61109;BME280;46995;55.740;37.402;2022-12-18T04:16:06;98938.16;;;-4.36;91.64
61109;BME280;46995;55.740;37.402;2022-12-18T04:18:33;98944.31;;;-4.40;91.41
61109;BME280;46995;55.740;37.402;2022-12-18T04:21:01;98965.06;;;-4.45;90.46
61109;BME280;46995;55.740;37.402;2022-12-18T04:23:27;98963.78;;;-4.56;91.23
61109;BME280;46995;55.740;37.402;2022-12-18T04:25:56;98973.03;;;-4.51;90.89
61109;BME280;46995;55.740;37.402;2022-12-18T04:28:36;98976.50;;;-4.52;91.61
61109;BME280;46995;55.740;37.402;2022-12-18T04:31:02;98944.44;;;-4.68;91.19
61109;BME280;46995;55.740;37.402;2022-12-18T04:33:28;98964.00;;;-4.62;91.61
61109;BME280;46995;55.740;37.402;2022-12-18T04:35:54;98972.28;;;-4.54;91.84
61109;BME280;46995;55.740;37.402;2022-12-18T04:38:20;98973.25;;;-4.57;91.29
61109;BME280;46995;55.740;37.402;2022-12-18T04:40:52;98971.75;;;-4.64;91.54
61109;BME280;46995;55.740;37.402;2022-12-18T04:43:25;98982.59;;;-4.54;91.31
61109;BME280;46995;55.740;37.402;2022-12-18T04:45:51;98963.25;;;-4.66;90.45
61109;BME280;46995;55.740;37.402;2022-12-18T04:48:17;98977.63;;;-4.60;90.61
61109;BME280;46995;55.740;37.402;2022-12-18T04:50:43;98979.41;;;-4.61;90.46
61109;BME280;46995;55.740;37.402;2022-12-18T04:53:09;98975.22;;;-4.65;90.54
61109;BME280;46995;55.740;37.402;2022-12-18T04:55:35;98981.06;;;-4.60;91.35
61109;BME280;46995;55.740;37.402;2022-12-18T04:58:00;98958.41;;;-4.75;90.92
61109;BME280;46995;55.740;37.402;2022-12-18T05:00:26;98969.47;;;-4.72;90.83
61109;BME280;46995;55.740;37.402;2022-12-18T05:02:52;98975.22;;;-4.65;91.02
61109;BME280;46995;55.740;37.402;2022-12-18T05:05:17;98983.88;;;-4.66;91.19
61109;BME280;46995;55.740;37.402;2022-12-18T05:07:43;98985.03;;;-4.76;90.47
61109;BME280;46995;55.740;37.402;2022-12-18T05:10:09;99000.28;;;-4.70;90.87
61109;BME280;46995;55.740;37.402;2022-12-18T05:12:35;99003.50;;;-4.63;90.99
61109;BME280;46995;55.740;37.402;2022-12-18T05:15:24;98973.16;;;-4.80;90.45
61109;BME280;46995;55.740;37.402;2022-12-18T05:17:51;98993.56;;;-4.74;90.59
61109;BME280;46995;55.740;37.402;2022-12-18T05:20:17;98997.84;;;-4.73;90.66
61109;BME280;46995;55.740;37.402;2022-12-18T05:22:43;98997.84;;;-4.73;91.12
61109;BME280;46995;55.740;37.402;2022-12-18T05:25:10;99005.63;;;-4.76;90.44
61109;BME280;46995;55.740;37.402;2022-12-18T05:27:36;99034.44;;;-4.63;90.56
61109;BME280;46995;55.740;37.402;2022-12-18T05:30:02;99026.75;;;-4.65;90.71
61109;BME280;46995;55.740;37.402;2022-12-18T05:32:29;99029.44;;;-4.68;90.69
61109;BME280;46995;55.740;37.402;2022-12-18T05:34:55;99029.53;;;-4.71;91.00
61109;BME280;46995;55.740;37.402;2022-12-18T05:37:22;99025.16;;;-4.69;91.35
61109;BME280;46995;55.740;37.402;2022-12-18T05:39:48;99048.94;;;-4.61;90.76
61109;BME280;46995;55.740;37.402;2022-12-18T05:42:14;99042.41;;;-4.71;90.21
61109;BME280;46995;55.740;37.402;2022-12-18T05:44:39;99050.06;;;-4.70;90.46
61109;BME280;46995;55.740;37.402;2022-12-18T05:47:06;99049.16;;;-4.67;90.54
61109;BME280;46995;55.740;37.402;2022-12-18T05:49:31;99054.38;;;-4.70;90.38
61109;BME280;46995;55.740;37.402;2022-12-18T05:51:57;99064.59;;;-4.67;90.84
61109;BME280;46995;55.740;37.402;2022-12-18T05:54:23;99056.06;;;-4.69;90.88
61109;BME280;46995;55.740;37.402;2022-12-18T05:56:48;99072.03;;;-4.58;91.03
61109;BME280;46995;55.740;37.402;2022-12-18T05:59:14;99059.38;;;-4.65;90.69
61109;BME280;46995;55.740;37.402;2022-12-18T06:01:40;99069.63;;;-4.38;91.82
61109;BME280;46995;55.740;37.402;2022-12-18T06:04:06;99070.13;;;-4.27;92.03
61109;BME280;46995;55.740;37.402;2022-12-18T06:06:32;99080.88;;;-4.14;92.00
61109;BME280;46995;55.740;37.402;2022-12-18T06:08:58;99079.41;;;-3.98;91.78
61109;BME280;46995;55.740;37.402;2022-12-18T06:11:25;99069.91;;;-3.96;92.34
61109;BME280;46995;55.740;37.402;2022-12-18T06:13:53;99059.50;;;-3.93;92.28
61109;BME280;46995;55.740;37.402;2022-12-18T06:16:19;99108.09;;;-3.82;91.89
61109;BME280;46995;55.740;37.402;2022-12-18T06:18:45;99110.91;;;-3.88;91.18
61109;BME280;46995;55.740;37.402;2022-12-18T06:21:11;99102.50;;;-3.93;91.36
61109;BME280;46995;55.740;37.402;2022-12-18T06:23:37;99107.06;;;-4.01;91.41
61109;BME280;46995;55.740;37.402;2022-12-18T06:26:08;99088.72;;;-4.18;91.48
61109;BME280;46995;55.740;37.402;2022-12-18T06:28:34;99108.22;;;-4.10;91.28
61109;BME280;46995;55.740;37.402;2022-12-18T06:31:05;99088.81;;;-4.20;91.17
61109;BME280;46995;55.740;37.402;2022-12-18T06:33:31;99124.53;;;-4.09;90.83
61109;BME280;46995;55.740;37.402;2022-12-18T06:36:06;99107.69;;;-4.19;91.24
61109;BME280;46995;55.740;37.402;2022-12-18T06:38:36;99138.41;;;-4.13;91.54
61109;BME280;46995;55.740;37.402;2022-12-18T06:41:16;99130.94;;;-4.21;91.48
61109;BME280;46995;55.740;37.402;2022-12-18T06:43:42;99150.50;;;-4.15;91.47
61109;BME280;46995;55.740;37.402;2022-12-18T06:46:09;99136.31;;;-4.29;91.33
61109;BME280;46995;55.740;37.402;2022-12-18T06:48:35;99166.31;;;-4.26;91.09
61109;BME280;46995;55.740;37.402;2022-12-18T06:51:01;99174.91;;;-4.25;90.64
61109;BME280;46995;55.740;37.402;2022-12-18T06:53:27;99175.78;;;-4.27;90.72
61109;BME280;46995;55.740;37.402;2022-12-18T06:56:02;99167.41;;;-4.33;90.99
61109;BME280;46995;55.740;37.402;2022-12-18T06:58:28;99175.84;;;-4.28;91.50
61109;BME280;46995;55.740;37.402;2022-12-18T07:01:06;99191.22;;;-4.25;90.88
61109;BME280;46995;55.740;37.402;2022-12-18T07:03:32;99181.84;;;-4.28;91.44
61109;BME280;46995;55.740;37.402;2022-12-18T07:05:58;99196.25;;;-4.22;90.89
61109;BME280;46995;55.740;37.402;2022-12-18T07:08:24;99173.41;;;-4.33;90.69
61109;BME280;46995;55.740;37.402;2022-12-18T07:10:50;99188.84;;;-4.31;90.81
61109;BME280;46995;55.740;37.402;2022-12-18T07:13:16;99200.75;;;-4.29;90.77
61109;BME280;46995;55.740;37.402;2022-12-18T07:15:43;99186.56;;;-4.40;90.90
61109;BME280;46995;55.740;37.402;2022-12-18T07:18:09;99214.34;;;-4.23;90.91
61109;BME280;46995;55.740;37.402;2022-12-18T07:20:35;99223.69;;;-4.19;91.35
61109;BME280;46995;55.740;37.402;2022-12-18T07:23:05;99206.94;;;-4.34;90.79
61109;BME280;46995;55.740;37.402;2022-12-18T07:25:37;99236.66;;;-4.22;91.00
61109;BME280;46995;55.740;37.402;2022-12-18T07:28:03;99220.53;;;-4.29;91.05
61109;BME280;46995;55.740;37.402;2022-12-18T07:30:29;99219.72;;;-4.30;91.02
61109;BME280;46995;55.740;37.402;2022-12-18T07:32:55;99236.47;;;-4.16;90.87
61109;BME280;46995;55.740;37.402;2022-12-18T07:35:21;99229.91;;;-4.27;91.29
61109;BME280;46995;55.740;37.402;2022-12-18T07:37:48;99243.31;;;-4.15;91.35
61109;BME280;46995;55.740;37.402;2022-12-18T07:40:14;99227.84;;;-4.15;91.06
61109;BME280;46995;55.740;37.402;2022-12-18T07:42:40;99230.41;;;-4.14;91.28
61109;BME280;46995;55.740;37.402;2022-12-18T07:45:06;99214.34;;;-4.23;91.13
61109;BME280;46995;55.740;37.402;2022-12-18T07:47:34;99251.66;;;-4.07;91.06
61109;BME280;46995;55.740;37.402;2022-12-18T07:50:02;99221.19;;;-4.22;90.99
61109;BME280;46995;55.740;37.402;2022-12-18T07:52:28;99221.13;;;-4.19;90.98
61109;BME280;46995;55.740;37.402;2022-12-18T07:54:54;99224.28;;;-4.11;91.64
61109;BME280;46995;55.740;37.402;2022-12-18T07:57:20;99233.31;;;-3.98;91.33
61109;BME280;46995;55.740;37.402;2022-12-18T07:59:45;99215.34;;;-4.01;91.74
61109;BME280;46995;55.740;37.402;2022-12-18T08:02:11;99244.41;;;-3.96;91.71
61109;BME280;46995;55.740;37.402;2022-12-18T08:04:37;99255.28;;;-3.87;91.24
61109;BME280;46995;55.740;37.402;2022-12-18T08:07:03;99243.41;;;-3.92;91.69
61109;BME280;46995;55.740;37.402;2022-12-18T08:09:28;99254.22;;;-3.81;92.00
61109;BME280;46995;55.740;37.402;2022-12-18T08:11:54;99253.34;;;-3.80;92.05
61109;BME280;46995;55.740;37.402;2022-12-18T08:14:20;99288.91;;;-3.63;92.15
61109;BME280;46995;55.740;37.402;2022-12-18T08:16:46;99288.47;;;-3.76;91.58
61109;BME280;46995;55.740;37.402;2022-12-18T08:19:12;99294.63;;;-3.80;91.27
61109;BME280;46995;55.740;37.402;2022-12-18T08:21:38;99294.81;;;-3.86;91.27
61109;BME280;46995;55.740;37.402;2022-12-18T08:24:04;99311.59;;;-3.73;91.24
61109;BME280;46995;55.740;37.402;2022-12-18T08:26:31;99320.81;;;-3.66;91.30
61109;BME280;46995;55.740;37.402;2022-12-18T08:28:58;99324.50;;;-3.73;91.74
61109;BME280;46995;55.740;37.402;2022-12-18T08:31:25;99311.06;;;-3.82;91.07
61109;BME280;46995;55.740;37.402;2022-12-18T08:33:52;99321.28;;;-3.81;91.14
61109;BME280;46995;55.740;37.402;2022-12-18T08:36:19;99318.88;;;-3.86;91.11
61109;BME280;46995;55.740;37.402;2022-12-18T08:38:46;99312.13;;;-3.90;91.18
61109;BME280;46995;55.740;37.402;2022-12-18T08:41:14;99347.75;;;-3.74;91.33
61109;BME280;46995;55.740;37.402;2022-12-18T08:43:40;99335.00;;;-3.79;91.36
61109;BME280;46995;55.740;37.402;2022-12-18T08:46:26;99324.88;;;-3.85;91.39
61109;BME280;46995;55.740;37.402;2022-12-18T08:48:53;99317.28;;;-3.90;90.92
61109;BME280;46995;55.740;37.402;2022-12-18T08:51:20;99289.34;;;-4.03;91.32
61109;BME280;46995;55.740;37.402;2022-12-18T08:53:46;99324.50;;;-3.73;91.40
61109;BME280;46995;55.740;37.402;2022-12-18T08:56:13;99334.63;;;-3.67;91.32
61109;BME280;46995;55.740;37.402;2022-12-18T08:58:39;99333.72;;;-3.66;91.63
61109;BME280;46995;55.740;37.402;2022-12-18T09:01:08;99327.00;;;-3.71;91.63
61109;BME280;46995;55.740;37.402;2022-12-18T09:03:38;99338.88;;;-3.66;91.27
61109;BME280;46995;55.740;37.402;2022-12-18T09:06:05;99342.47;;;-3.71;90.97
61109;BME280;46995;55.740;37.402;2022-12-18T09:08:31;99342.59;;;-3.74;91.41
61109;BME280;46995;55.740;37.402;2022-12-18T09:10:57;99343.44;;;-3.74;91.63
61109;BME280;46995;55.740;37.402;2022-12-18T09:13:22;99328.25;;;-3.83;90.74
61109;BME280;46995;55.740;37.402;2022-12-18T09:15:51;99361.47;;;-3.72;91.53
61109;BME280;46995;55.740;37.402;2022-12-18T09:18:18;99355.53;;;-3.76;90.77
61109;BME280;46995;55.740;37.402;2022-12-18T09:20:44;99371.84;;;-3.75;90.59
61109;BME280;46995;55.740;37.402;2022-12-18T09:23:11;99374.50;;;-3.77;91.09
61109;BME280;46995;55.740;37.402;2022-12-18T09:25:39;99373.75;;;-3.80;91.45
61109;BME280;46995;55.740;37.402;2022-12-18T09:28:06;99389.00;;;-3.73;90.85
61109;BME280;46995;55.740;37.402;2022-12-18T09:30:37;99385.72;;;-3.78;91.37
61109;BME280;46995;55.740;37.402;2022-12-18T09:33:03;99407.94;;;-3.74;91.34
61109;BME280;46995;55.740;37.402;2022-12-18T09:35:30;99386.75;;;-3.83;91.19
61109;BME280;46995;55.740;37.402;2022-12-18T09:37:56;99355.69;;;-4.08;91.26
61109;BME280;46995;55.740;37.402;2022-12-18T09:40:25;99403.66;;;-3.75;91.17
61109;BME280;46995;55.740;37.402;2022-12-18T09:42:55;99355.56;;;-4.04;91.23
61109;BME280;46995;55.740;37.402;2022-12-18T09:45:23;99378.16;;;-3.84;91.74
61109;BME280;46995;55.740;37.402;2022-12-18T09:47:51;99415.56;;;-3.71;91.48
61109;BME280;46995;55.740;37.402;2022-12-18T09:52:53;99426.75;;;-3.70;91.29
61109;BME280;46995;55.740;37.402;2022-12-18T09:57:51;99428.28;;;-3.65;91.30
61109;BME280;46995;55.740;37.402;2022-12-18T10:00:20;99432.47;;;-3.61;90.91
61109;BME280;46995;55.740;37.402;2022-12-18T10:02:47;99410.34;;;-3.68;91.35
61109;BME280;46995;55.740;37.402;2022-12-18T10:05:19;99435.56;;;-3.50;91.32
61109;BME280;46995;55.740;37.402;2022-12-18T10:08:19;99393.53;;;-3.81;91.03
61109;BME280;46995;55.740;37.402;2022-12-18T10:10:50;99432.47;;;-3.61;91.55
61109;BME280;46995;55.740;37.402;2022-12-18T10:13:41;99445.88;;;-3.50;91.05
61109;BME280;46995;55.740;37.402;2022-12-18T10:16:16;99433.06;;;-3.51;90.92
61109;BME280;46995;55.740;37.402;2022-12-18T10:24:50;99446.00;;;-3.53;91.46
61109;BME280;46995;55.740;37.402;2022-12-18T10:27:24;99422.22;;;-3.62;91.30
61109;BME280;46995;55.740;37.402;2022-12-18T10:29:50;99425.81;;;-3.68;91.30
61109;BME280;46995;55.740;37.402;2022-12-18T10:32:23;99453.03;;;-3.58;91.54
61109;BME280;46995;55.740;37.402;2022-12-18T10:34:53;99436.03;;;-3.65;91.02
61109;BME280;46995;55.740;37.402;2022-12-18T10:37:22;99447.94;;;-3.61;91.08
61109;BME280;46995;55.740;37.402;2022-12-18T10:42:32;99449.75;;;-3.63;91.04
61109;BME280;46995;55.740;37.402;2022-12-18T10:45:17;99457.69;;;-3.70;90.74
61109;BME280;46995;55.740;37.402;2022-12-18T10:47:48;99461.09;;;-3.68;90.63
61109;BME280;46995;55.740;37.402;2022-12-18T10:50:45;99461.84;;;-3.65;90.51
61109;BME280;46995;55.740;37.402;2022-12-18T10:53:22;99466.28;;;-3.70;90.82
61109;BME280;46995;55.740;37.402;2022-12-18T10:55:49;99480.72;;;-3.63;90.91
61109;BME280;46995;55.740;37.402;2022-12-18T11:08:36;99518.69;;;-3.38;91.85
61109;BME280;46995;55.740;37.402;2022-12-18T11:11:04;99506.81;;;-3.44;92.00
61109;BME280;46995;55.740;37.402;2022-12-18T11:13:32;99505.88;;;-3.42;91.38
61109;BME280;46995;55.740;37.402;2022-12-18T11:16:21;99509.34;;;-3.43;91.27
61109;BME280;46995;55.740;37.402;2022-12-18T11:18:47;99507.66;;;-3.44;91.09
61109;BME280;46995;55.740;37.402;2022-12-18T11:21:13;99493.34;;;-3.54;91.70
61109;BME280;46995;55.740;37.402;2022-12-18T11:23:53;99498.38;;;-3.51;91.42
61109;BME280;46995;55.740;37.402;2022-12-18T11:26:29;99495.09;;;-3.56;91.63
61109;BME280;46995;55.740;37.402;2022-12-18T11:29:10;99490.75;;;-3.54;91.72
61109;BME280;46995;55.740;37.402;2022-12-18T11:31:41;99518.06;;;-3.47;91.25
61109;BME280;46995;55.740;37.402;2022-12-18T11:36:44;99524.16;;;-3.49;91.00
61109;BME280;46995;55.740;37.402;2022-12-18T11:40:13;99531.94;;;-3.51;90.91
61109;BME280;46995;55.740;37.402;2022-12-18T11:45:30;99525.25;;;-3.56;91.06
61109;BME280;46995;55.740;37.402;2022-12-18T11:48:20;99515.16;;;-3.65;90.95
61109;BME280;46995;55.740;37.402;2022-12-18T11:50:55;99548.94;;;-3.44;91.18
61109;BME280;46995;55.740;37.402;2022-12-18T11:53:22;99559.94;;;-3.37;91.84
61109;BME280;46995;55.740;37.402;2022-12-18T11:56:08;99542.03;;;-3.42;91.06
61109;BME280;46995;55.740;37.402;2022-12-18T12:04:15;99568.69;;;-3.41;91.17
61109;BME280;46995;55.740;37.402;2022-12-18T12:10:05;99581.31;;;-3.61;91.09
61109;BME280;46995;55.740;37.402;2022-12-18T12:18:17;99591.03;;;-3.71;90.64
61109;BME280;46995;55.740;37.402;2022-12-18T12:21:28;99612.28;;;-3.61;91.13
61109;BME280;46995;55.740;37.402;2022-12-18T12:30:04;99620.47;;;-3.78;91.30
61109;BME280;46995;55.740;37.402;2022-12-18T12:40:27;99642.56;;;-3.68;91.15
61109;BME280;46995;55.740;37.402;2022-12-18T12:43:20;99643.56;;;-3.73;91.16
61109;BME280;46995;55.740;37.402;2022-12-18T12:45:56;99659.75;;;-3.67;91.13
61109;BME280;46995;55.740;37.402;2022-12-18T12:48:44;99670.81;;;-3.63;90.94
61109;BME280;46995;55.740;37.402;2022-12-18T12:51:19;99678.53;;;-3.62;90.88
61109;BME280;46995;55.740;37.402;2022-12-18T12:53:46;99678.47;;;-3.60;91.37
61109;BME280;46995;55.740;37.402;2022-12-18T12:56:14;99680.19;;;-3.61;91.58
61109;BME280;46995;55.740;37.402;2022-12-18T13:07:23;99700.16;;;-3.67;91.55
61109;BME280;46995;55.740;37.402;2022-12-18T13:13:07;99724.16;;;-3.64;90.92
61109;BME280;46995;55.740;37.402;2022-12-18T13:18:09;99735.31;;;-3.62;91.07
61109;BME280;46995;55.740;37.402;2022-12-18T13:21:14;99732.78;;;-3.65;91.62
61109;BME280;46995;55.740;37.402;2022-12-18T13:23:33;99731.91;;;-3.64;91.65
61109;BME280;46995;55.740;37.402;2022-12-18T13:34:23;99750.69;;;-3.59;91.79
61109;BME280;46995;55.740;37.402;2022-12-18T13:36:52;99754.97;;;-3.58;90.94
61109;BME280;46995;55.740;37.402;2022-12-18T13:44:36;99782.28;;;-3.49;91.25
61109;BME280;46995;55.740;37.402;2022-12-18T13:47:04;99801.22;;;-3.50;91.37
61109;BME280;46995;55.740;37.402;2022-12-18T13:49:37;99812.34;;;-3.47;90.68
61109;BME280;46995;55.740;37.402;2022-12-18T13:52:17;99814.97;;;-3.50;90.75
61109;BME280;46995;55.740;37.402;2022-12-18T13:54:48;99793.06;;;-3.67;90.97
61109;BME280;46995;55.740;37.402;2022-12-18T13:57:28;99806.72;;;-3.64;90.70
61109;BME280;46995;55.740;37.402;2022-12-18T13:59:54;99813.59;;;-3.63;90.17
61109;BME280;46995;55.740;37.402;2022-12-18T14:02:24;99831.69;;;-3.64;90.55
61109;BME280;46995;55.740;37.402;2022-12-18T14:04:51;99808.84;;;-3.79;90.80
61109;BME280;46995;55.740;37.402;2022-12-18T14:07:23;99831.88;;;-3.72;90.52
61109;BME280;46995;55.740;37.402;2022-12-18T14:09:55;99827.72;;;-3.77;90.59
61109;BME280;46995;55.740;37.402;2022-12-18T14:12:25;99836.31;;;-3.77;91.15
61109;BME280;46995;55.740;37.402;2022-12-18T14:20:24;99825.31;;;-3.85;91.44
61109;BME280;46995;55.740;37.402;2022-12-18T14:22:51;99865.22;;;-3.64;90.66
61109;BME280;46995;55.740;37.402;2022-12-18T14:25:23;99845.06;;;-3.84;90.92
61109;BME280;46995;55.740;37.402;2022-12-18T14:30:28;99867.22;;;-3.75;90.30
61109;BME280;46995;55.740;37.402;2022-12-18T14:33:08;99876.63;;;-3.73;90.28
61109;BME280;46995;55.740;37.402;2022-12-18T14:35:38;99883.50;;;-3.72;90.98
61109;BME280;46995;55.740;37.402;2022-12-18T14:38:18;99891.25;;;-3.73;91.03
61109;BME280;46995;55.740;37.402;2022-12-18T14:40:45;99868.41;;;-3.90;90.53
61109;BME280;46995;55.740;37.402;2022-12-18T14:43:11;99893.19;;;-3.83;90.62
61109;BME280;46995;55.740;37.402;2022-12-18T14:45:44;99910.31;;;-3.79;90.90
61109;BME280;46995;55.740;37.402;2022-12-18T14:50:40;99906.22;;;-3.89;90.12
61109;BME280;46995;55.740;37.402;2022-12-18T14:53:43;99917.50;;;-3.93;90.50
61109;BME280;46995;55.740;37.402;2022-12-18T14:59:16;99903.34;;;-4.15;90.42
61109;BME280;46995;55.740;37.402;2022-12-18T15:02:10;99921.31;;;-4.12;90.18
61109;BME280;46995;55.740;37.402;2022-12-18T15:04:41;99914.47;;;-4.13;90.58
61109;BME280;46995;55.740;37.402;2022-12-18T15:10:14;99949.56;;;-4.06;89.78
61109;BME280;46995;55.740;37.402;2022-12-18T15:18:03;99964.47;;;-4.20;89.55
61109;BME280;46995;55.740;37.402;2022-12-18T15:23:05;99945.09;;;-4.40;90.33
61109;BME280;46995;55.740;37.402;2022-12-18T15:25:34;99965.53;;;-4.31;90.49
61109;BME280;46995;55.740;37.402;2022-12-18T15:28:02;99928.09;;;-4.50;90.00